Terminal Aerodrome Forecast
Issued by NWS

Current Version | Previous Version | Text Only | Print | Product List | Glossary Off
Versions: 1 2 3 4 5 6 7 8 9 10 11 12 13 14

000
FTUS41 KPBZ 180520
TAFHLG
TAF
KHLG 180520Z 1806/1906 20003KT P6SM SKC
      TEMPO 1810/1812 2SM BR=

USA.gov is the U.S. government's official web portal to all federal, state and local government web resources and services.